createdAt,value
2018-12-31T00:05:36.832Z,21.65
2018-12-31T00:12:08.053Z,22.60
2018-12-31T00:15:34.165Z,21.68
2018-12-31T00:22:05.030Z,21.62
2018-12-31T00:25:29.248Z,22.05
2018-12-31T00:31:59.539Z,22.32
2018-12-31T00:35:24.153Z,23.73
2018-12-31T00:41:55.070Z,23.87
2018-12-31T00:45:20.280Z,23.45
2018-12-31T00:51:50.677Z,23.22
2018-12-31T00:58:21.513Z,21.93
2018-12-31T01:01:46.097Z,22.07
2018-12-31T01:08:16.815Z,21.15
2018-12-31T01:14:47.782Z,23.70
2018-12-31T01:21:18.591Z,25.15
2018-12-31T01:24:43.354Z,23.22
2018-12-31T01:31:13.600Z,22.15
2018-12-31T01:34:37.943Z,21.93
2018-12-31T01:41:09.141Z,21.50
2018-12-31T01:47:39.791Z,21.70
2018-12-31T01:51:11.105Z,20.25
2018-12-31T01:57:36.656Z,19.27
2018-12-31T02:01:01.188Z,19.00
2018-12-31T02:07:32.241Z,18.83
2018-12-31T02:10:02.099Z,18.32
2018-12-31T02:16:33.158Z,16.95
2018-12-31T02:23:04.114Z,17.75
2018-12-31T02:29:35.308Z,17.40
2018-12-31T02:32:59.660Z,17.30
2018-12-31T02:39:30.796Z,15.83
2018-12-31T02:46:01.535Z,14.17
2018-12-31T02:49:25.868Z,12.80
2018-12-31T02:55:56.235Z,11.57
2018-12-31T03:02:27.034Z,12.33
2018-12-31T03:08:58.108Z,13.03
2018-12-31T03:15:29.205Z,13.68
2018-12-31T03:21:59.804Z,12.47
2018-12-31T03:28:30.747Z,12.98
2018-12-31T03:31:30.940Z,13.83
2018-12-31T03:38:01.070Z,15.08
2018-12-31T03:44:31.037Z,13.08
2018-12-31T03:51:00.977Z,12.80
2018-12-31T03:54:25.161Z,12.28
2018-12-31T04:00:55.631Z,11.33
2018-12-31T04:04:20.059Z,11.35
2018-12-31T04:10:50.584Z,12.35
2018-12-31T04:17:21.352Z,12.82
2018-12-31T04:20:45.677Z,12.25
2018-12-31T04:27:16.528Z,11.38
2018-12-31T04:33:47.213Z,12.20
2018-12-31T04:37:11.508Z,12.68
2018-12-31T04:43:42.296Z,13.38
2018-12-31T04:47:06.483Z,14.15
2018-12-31T04:53:37.543Z,12.17
2018-12-31T05:00:09.150Z,13.43
2018-12-31T05:03:33.334Z,12.43
2018-12-31T05:10:04.729Z,11.95
2018-12-31T05:12:34.734Z,10.63
2018-12-31T05:19:05.353Z,7.20
2018-12-31T05:25:36.045Z,7.25
2018-12-31T05:32:06.748Z,5.17
2018-12-31T05:35:31.103Z,5.30
2018-12-31T05:42:02.250Z,4.90
2018-12-31T05:45:26.518Z,4.78
2018-12-31T05:51:57.426Z,4.15
2018-12-31T05:58:28.207Z,4.08
2018-12-31T06:04:59.186Z,4.17
2018-12-31T06:08:24.524Z,3.53
2018-12-31T06:14:55.561Z,2.77
2018-12-31T06:21:26.802Z,3.23
2018-12-31T06:24:51.276Z,2.77
2018-12-31T06:31:22.020Z,2.45
2018-12-31T06:34:46.620Z,2.47
2018-12-31T06:41:17.834Z,3.58
2018-12-31T06:47:49.058Z,2.50
2018-12-31T06:51:13.596Z,3.05
2018-12-31T06:57:44.505Z,3.35
2018-12-31T07:01:09.154Z,3.70
2018-12-31T07:07:40.204Z,6.33
2018-12-31T07:14:10.766Z,7.92
2018-12-31T07:16:40.757Z,8.95
2018-12-31T07:23:11.097Z,10.80
2018-12-31T07:29:42.180Z,10.68
2018-12-31T07:33:06.926Z,11.73
2018-12-31T07:39:38.169Z,11.07
2018-12-31T07:46:09.426Z,12.50
2018-12-31T07:49:34.163Z,13.28
2018-12-31T07:56:05.170Z,16.32
2018-12-31T08:02:36.422Z,15.83
2018-12-31T08:06:00.585Z,14.10
2018-12-31T08:12:31.138Z,12.45
2018-12-31T08:19:02.566Z,12.98
2018-12-31T08:25:33.700Z,12.07
2018-12-31T08:28:58.056Z,11.65
2018-12-31T08:35:28.632Z,11.97
2018-12-31T08:41:59.827Z,13.18
2018-12-31T08:48:31.048Z,13.83
2018-12-31T08:55:01.625Z,11.88
2018-12-31T09:01:32.809Z,14.57
2018-12-31T09:08:03.748Z,44.60
2018-12-31T09:11:28.132Z,20.95
2018-12-31T09:18:00.102Z,32.08
2018-12-31T09:20:30.030Z,31.30
2018-12-31T09:27:00.958Z,15.60
2018-12-31T09:33:32.004Z,14.40
2018-12-31T09:36:56.495Z,15.50
2018-12-31T09:43:27.287Z,30.32
2018-12-31T09:49:58.140Z,24.50
2018-12-31T09:53:22.446Z,14.60
2018-12-31T09:59:53.467Z,13.08
2018-12-31T10:06:24.279Z,12.70
2018-12-31T10:09:48.911Z,12.45
2018-12-31T10:16:20.625Z,10.95
2018-12-31T10:22:51.621Z,12.10
2018-12-31T10:29:22.765Z,11.35
2018-12-31T10:35:53.438Z,10.68
2018-12-31T10:42:24.663Z,10.78
2018-12-31T10:48:55.614Z,12.03
2018-12-31T10:52:08.083Z,12.25
2018-12-31T10:58:37.933Z,12.05
2018-12-31T11:05:07.943Z,12.80
2018-12-31T11:08:32.563Z,12.63
2018-12-31T11:15:02.640Z,63.43
2018-12-31T11:21:33.014Z,50.58
2018-12-31T11:24:02.954Z,59.03
2018-12-31T11:30:32.918Z,29.00
2018-12-31T11:37:03.498Z,31.42
2018-12-31T11:40:27.898Z,31.48
2018-12-31T11:46:58.945Z,24.85
2018-12-31T11:53:29.466Z,16.57
2018-12-31T11:56:53.814Z,11.28
2018-12-31T12:03:24.967Z,22.02
2018-12-31T12:09:56.023Z,10.55
2018-12-31T12:13:21.764Z,10.55
2018-12-31T12:19:52.678Z,11.55
2018-12-31T12:22:23.345Z,12.53
2018-12-31T12:24:53.308Z,12.07
2018-12-31T12:31:24.422Z,11.55
2018-12-31T12:34:48.592Z,12.43
2018-12-31T12:41:19.343Z,11.33
2018-12-31T12:47:50.102Z,11.00
2018-12-31T12:51:14.396Z,11.25
2018-12-31T12:57:45.095Z,10.98
2018-12-31T13:01:09.435Z,10.72
2018-12-31T13:07:39.851Z,12.43
2018-12-31T13:14:12.209Z,15.20
2018-12-31T13:17:36.972Z,28.90
2018-12-31T13:24:07.818Z,19.87
2018-12-31T13:30:38.590Z,30.57
2018-12-31T13:34:02.859Z,37.90
2018-12-31T13:40:34.447Z,18.17
2018-12-31T13:47:06.424Z,50.55
2018-12-31T13:50:31.878Z,50.33
2018-12-31T13:57:03.008Z,65.87
2018-12-31T14:00:27.742Z,51.63
2018-12-31T14:06:58.783Z,50.50
2018-12-31T14:13:29.923Z,31.00
2018-12-31T14:16:54.334Z,34.78
2018-12-31T14:23:25.345Z,37.38
2018-12-31T14:25:55.507Z,27.35
2018-12-31T14:32:26.272Z,14.85
2018-12-31T14:38:57.287Z,10.08
2018-12-31T14:45:28.145Z,9.60
2018-12-31T14:48:52.479Z,9.67
2018-12-31T14:55:23.709Z,11.40
2018-12-31T14:58:48.123Z,10.72
2018-12-31T15:05:18.879Z,11.25
2018-12-31T15:11:49.929Z,10.70
2018-12-31T15:15:14.617Z,10.93
2018-12-31T15:21:45.621Z,13.35
2018-12-31T15:28:16.669Z,12.40
2018-12-31T15:34:47.631Z,12.70
2018-12-31T15:41:18.192Z,13.08
2018-12-31T15:47:48.940Z,17.05
2018-12-31T15:51:13.472Z,72.42
2018-12-31T15:57:44.101Z,48.48
2018-12-31T16:04:14.831Z,74.03
2018-12-31T16:10:45.857Z,82.00
2018-12-31T16:14:10.657Z,88.58
2018-12-31T16:20:41.369Z,73.52
2018-12-31T16:27:12.036Z,71.80
2018-12-31T16:29:42.238Z,77.30
2018-12-31T16:36:12.878Z,96.10
2018-12-31T16:42:43.469Z,60.40
2018-12-31T16:49:14.319Z,88.97
2018-12-31T16:52:04.146Z,100.50
2018-12-31T16:58:34.707Z,59.33
2018-12-31T17:01:59.037Z,56.60
2018-12-31T17:08:29.299Z,47.25
2018-12-31T17:11:53.561Z,52.75
2018-12-31T17:18:23.447Z,42.08
2018-12-31T17:24:53.311Z,28.10
2018-12-31T17:27:53.834Z,44.10
2018-12-31T17:30:23.918Z,46.02
2018-12-31T17:36:54.271Z,35.37
2018-12-31T17:43:24.631Z,34.40
2018-12-31T17:49:54.468Z,32.93
2018-12-31T17:56:24.449Z,35.38
2018-12-31T17:59:48.719Z,44.77
2018-12-31T18:06:18.813Z,63.58
2018-12-31T18:12:49.860Z,43.13
2018-12-31T18:19:20.583Z,41.83
2018-12-31T18:25:50.765Z,46.60
2018-12-31T18:32:21.428Z,39.65
2018-12-31T18:38:52.039Z,25.92
2018-12-31T18:41:59.775Z,23.85
2018-12-31T18:48:30.877Z,27.98
2018-12-31T18:55:01.632Z,22.37
2018-12-31T18:58:26.183Z,21.27
2018-12-31T19:04:57.436Z,22.90
2018-12-31T19:11:28.868Z,23.87
2018-12-31T19:14:53.360Z,22.05
2018-12-31T19:21:24.064Z,19.60
2018-12-31T19:24:48.704Z,20.10
2018-12-31T19:31:20.287Z,57.20
2018-12-31T19:33:50.829Z,72.62
2018-12-31T19:40:21.838Z,31.70
2018-12-31T19:46:52.322Z,34.38
2018-12-31T19:53:22.725Z,35.48
2018-12-31T19:59:53.403Z,30.12
2018-12-31T20:03:18.173Z,30.43
2018-12-31T20:09:49.002Z,27.73
2018-12-31T20:13:13.763Z,31.20
2018-12-31T20:19:44.918Z,28.65
2018-12-31T20:26:15.869Z,28.10
2018-12-31T20:29:40.732Z,25.08
2018-12-31T20:36:11.228Z,16.60
2018-12-31T20:39:35.880Z,16.80
2018-12-31T20:46:07.179Z,14.60
2018-12-31T20:52:38.087Z,15.23
2018-12-31T20:56:02.634Z,14.30
2018-12-31T21:02:33.212Z,15.90
2018-12-31T21:09:05.585Z,13.35
2018-12-31T21:12:30.128Z,13.10
2018-12-31T21:19:01.289Z,15.15
2018-12-31T21:25:32.529Z,22.83
2018-12-31T21:32:03.424Z,22.37
2018-12-31T21:35:04.090Z,24.73
2018-12-31T21:37:34.064Z,23.67
2018-12-31T21:44:04.313Z,22.67
2018-12-31T21:50:34.353Z,21.80
2018-12-31T21:57:05.004Z,25.23
2018-12-31T22:00:29.335Z,25.92
2018-12-31T22:06:59.550Z,27.87
2018-12-31T22:13:30.254Z,20.92
2018-12-31T22:16:54.889Z,20.90
2018-12-31T22:23:25.013Z,26.07
2018-12-31T22:29:55.549Z,22.17
2018-12-31T22:33:19.919Z,20.15
2018-12-31T22:39:50.680Z,20.23
2018-12-31T22:46:21.818Z,16.90
2018-12-31T22:53:01.580Z,21.77
2018-12-31T22:59:32.672Z,23.05
2018-12-31T23:06:03.436Z,24.67
2018-12-31T23:12:34.318Z,21.02
2018-12-31T23:19:04.948Z,24.43
2018-12-31T23:25:36.120Z,44.20
2018-12-31T23:32:07.117Z,68.17
2018-12-31T23:38:38.373Z,50.25
2018-12-31T23:41:08.638Z,41.28
2018-12-31T23:47:39.242Z,42.58
2018-12-31T23:54:10.491Z,50.37
